Time;durP1;ratioP1;P1;durP2;ratioP2;P2;SDS_P1;SDS_P2;PMS_P1;PMS_P2;Temp;Humidity;BMP_temperature;BMP_pressure;BME280_temperature;BME280_humidity;BME280_pressure;Samples;Min_cycle;Max_cycle;Signal;HPM_P1;HPM_P2
2023/03/14 00:02:09;;;;;;;17.67;6.63;;;10.10;99.90;;;;;;4939860;28;90051;-30
2023/03/14 00:04:35;;;;;;;16.33;5.13;;;10.20;99.90;;;;;;4940759;28;88990;-30
2023/03/14 00:07:01;;;;;;;9.45;4.22;;;10.20;99.90;;;;;;4939726;28;90262;-31
2023/03/14 00:09:29;;;;;;;8.55;5.82;;;10.20;99.90;;;;;;4940457;28;89790;-32
2023/03/14 00:11:55;;;;;;;17.23;5.35;;;10.20;99.90;;;;;;4939620;28;90161;-31
2023/03/14 00:14:21;;;;;;;16.35;5.93;;;10.20;99.90;;;;;;4940498;28;88236;-32
2023/03/14 00:16:46;;;;;;;15.65;6.15;;;10.20;99.90;;;;;;4939647;28;89879;-28
2023/03/14 00:19:12;;;;;;;19.92;5.03;;;10.20;99.90;;;;;;4940565;28;89327;-29
2023/03/14 00:21:38;;;;;;;15.15;6.15;;;10.30;99.90;;;;;;4940151;28;89941;-31
2023/03/14 00:24:04;;;;;;;8.27;4.53;;;10.30;99.90;;;;;;4939702;28;89879;-30
2023/03/14 00:26:29;;;;;;;11.80;5.85;;;10.30;99.90;;;;;;4939400;28;90339;-29
2023/03/14 00:28:55;;;;;;;13.63;6.57;;;10.30;99.90;;;;;;4939904;28;88325;-33
2023/03/14 00:31:21;;;;;;;9.00;4.85;;;10.30;99.90;;;;;;4940007;28;89673;-30
2023/03/14 00:33:47;;;;;;;17.75;6.88;;;10.30;99.90;;;;;;4939796;28;88463;-30
2023/03/14 00:36:15;;;;;;;20.92;6.38;;;10.30;99.90;;;;;;4939950;28;89373;-32
2023/03/14 00:38:42;;;;;;;14.65;6.25;;;10.30;99.90;;;;;;4939733;28;89788;-29
2023/03/14 00:41:10;;;;;;;24.52;6.82;;;10.40;99.90;;;;;;4939840;28;89836;-30
2023/03/14 00:43:36;;;;;;;10.98;5.68;;;10.40;99.90;;;;;;4939939;28;88644;-31
2023/03/14 00:46:02;;;;;;;9.35;4.78;;;10.40;99.90;;;;;;4940023;28;90707;-30
2023/03/14 00:48:28;;;;;;;12.30;5.90;;;10.40;99.90;;;;;;4938993;28;90422;-30
2023/03/14 00:50:53;;;;;;;16.30;7.30;;;10.30;99.90;;;;;;4938509;28;90815;-31
2023/03/14 00:53:19;;;;;;;9.63;4.28;;;10.30;99.90;;;;;;4940011;28;89100;-31
2023/03/14 00:55:45;;;;;;;13.55;6.25;;;10.30;99.90;;;;;;4938702;28;90598;-33
2023/03/14 00:58:13;;;;;;;12.48;5.82;;;10.30;99.90;;;;;;4940162;28;90665;-33
2023/03/14 01:00:39;;;;;;;15.20;7.53;;;10.30;99.90;;;;;;4939159;28;90034;-30
2023/03/14 01:03:06;;;;;;;11.18;6.47;;;10.20;99.90;;;;;;4939805;28;89993;-30
2023/03/14 01:05:32;;;;;;;13.50;6.68;;;10.30;99.90;;;;;;4939927;28;89896;-30
2023/03/14 01:07:57;;;;;;;16.38;6.22;;;10.30;99.90;;;;;;4940585;28;90391;-33
2023/03/14 01:10:23;;;;;;;7.63;5.22;;;10.20;99.90;;;;;;4942684;28;89627;-30
2023/03/14 01:12:49;;;;;;;7.65;5.22;;;10.20;99.90;;;;;;4942807;28;90003;-29
2023/03/14 01:15:15;;;;;;;7.88;4.97;;;10.20;99.90;;;;;;4942062;28;88780;-30
2023/03/14 01:17:41;;;;;;;5.95;5.05;;;10.10;99.90;;;;;;4943068;28;89865;-29
2023/03/14 01:20:09;;;;;;;9.43;5.07;;;10.10;99.90;;;;;;4942532;28;90326;-31
2023/03/14 01:22:36;;;;;;;10.75;5.82;;;10.00;99.90;;;;;;4942893;28;90081;-31
2023/03/14 01:25:02;;;;;;;12.85;4.65;;;10.00;99.90;;;;;;4942262;28;90317;-33
2023/03/14 01:27:28;;;;;;;11.80;5.60;;;10.00;99.90;;;;;;4943024;28;90166;-32
2023/03/14 01:29:53;;;;;;;11.07;4.93;;;10.00;99.90;;;;;;4942047;28;89628;-32
2023/03/14 01:32:19;;;;;;;11.38;5.22;;;10.00;99.90;;;;;;4943178;28;89213;-29
2023/03/14 01:34:44;;;;;;;13.35;5.70;;;10.00;99.90;;;;;;4941661;28;89213;-29
2023/03/14 01:37:11;;;;;;;14.48;5.45;;;9.90;99.90;;;;;;4942345;28;90551;-32
2023/03/14 01:39:37;;;;;;;6.40;3.55;;;9.90;99.90;;;;;;4942706;28;90071;-31
2023/03/14 01:42:03;;;;;;;10.73;4.60;;;9.80;99.90;;;;;;4942697;28;88851;-29
2023/03/14 01:44:52;;;;;;;8.10;4.93;;;9.80;99.90;;;;;;4942160;28;90210;-31
2023/03/14 01:47:18;;;;;;;6.78;4.20;;;9.70;99.90;;;;;;4942792;28;89782;-30
2023/03/14 01:50:06;;;;;;;13.20;5.13;;;9.70;99.90;;;;;;4941198;28;89449;-31
2023/03/14 01:52:36;;;;;;;10.13;4.93;;;9.70;99.90;;;;;;4941463;28;87753;-30
2023/03/14 01:55:24;;;;;;;13.18;4.30;;;9.60;99.90;;;;;;4942331;28;90056;-32
2023/03/14 01:57:59;;;;;;;11.60;5.38;;;9.60;99.90;;;;;;4941755;28;88888;-30
2023/03/14 02:00:25;;;;;;;11.00;5.07;;;9.60;99.90;;;;;;4942002;28;89413;-30
2023/03/14 02:02:54;;;;;;;13.60;5.25;;;9.60;99.90;;;;;;4942206;28;88547;-30
2023/03/14 02:05:23;;;;;;;10.48;4.40;;;9.60;99.90;;;;;;4942367;28;90359;-29
2023/03/14 02:07:51;;;;;;;12.55;4.97;;;9.60;99.90;;;;;;4942044;28;89907;-30
2023/03/14 02:10:20;;;;;;;11.88;4.30;;;9.60;99.90;;;;;;4941658;28;89500;-32
2023/03/14 02:12:48;;;;;;;14.98;5.85;;;9.60;99.90;;;;;;4941559;28;89390;-32
2023/03/14 02:15:13;;;;;;;13.70;5.67;;;9.60;99.90;;;;;;4940793;28;90186;-31
2023/03/14 02:17:43;;;;;;;16.73;4.43;;;9.70;99.90;;;;;;4942607;28;89018;-33
2023/03/14 02:20:24;;;;;;;15.57;6.00;;;9.70;99.90;;;;;;4941314;28;89422;-30
2023/03/14 02:22:50;;;;;;;14.43;5.35;;;9.70;99.90;;;;;;4942148;28;89476;-33
2023/03/14 02:25:51;;;;;;;11.75;6.72;;;9.70;99.90;;;;;;4941216;28;89324;-29
2023/03/14 02:28:16;;;;;;;14.10;5.47;;;9.80;99.90;;;;;;4941438;28;90882;-30
2023/03/14 02:30:42;;;;;;;18.58;6.80;;;9.80;99.90;;;;;;4941275;28;92411;-30
2023/03/14 02:33:12;;;;;;;9.00;4.55;;;9.80;99.90;;;;;;4941569;28;89890;-33
2023/03/14 02:35:42;;;;;;;21.08;5.55;;;9.90;99.90;;;;;;4941443;28;90486;-31
2023/03/14 02:38:42;;;;;;;9.10;4.75;;;9.90;99.90;;;;;;4941240;28;91111;-32
2023/03/14 02:41:08;;;;;;;13.05;5.45;;;9.80;99.90;;;;;;4941298;28;89517;-33
2023/03/14 02:43:34;;;;;;;13.23;5.70;;;9.90;99.90;;;;;;4941907;28;89001;-32
2023/03/14 02:46:01;;;;;;;9.23;5.35;;;9.80;99.90;;;;;;4941162;28;90384;-32
2023/03/14 02:48:38;;;;;;;26.60;6.10;;;9.80;99.90;;;;;;4941354;28;89746;-29
2023/03/14 02:51:03;;;;;;;11.65;5.05;;;9.80;99.90;;;;;;4940634;28;89615;-33
2023/03/14 02:53:36;;;;;;;9.13;4.45;;;9.90;99.90;;;;;;4941647;28;89587;-32
2023/03/14 02:56:03;;;;;;;9.80;5.18;;;9.90;99.90;;;;;;4941225;28;89878;-30
2023/03/14 02:58:28;;;;;;;15.00;5.05;;;9.90;99.90;;;;;;4941402;28;89146;-29
2023/03/14 03:00:54;;;;;;;13.93;4.55;;;9.90;99.90;;;;;;4923201;28;89871;-30
2023/03/14 03:03:20;;;;;;;10.20;3.92;;;9.90;99.90;;;;;;4942289;28;89364;-29
2023/03/14 03:05:50;;;;;;;5.60;3.97;;;9.80;99.90;;;;;;4940886;28;91846;-30
2023/03/14 03:08:17;;;;;;;10.32;4.55;;;9.80;99.90;;;;;;4941392;28;89397;-30
2023/03/14 03:10:42;;;;;;;5.80;3.78;;;9.70;99.90;;;;;;4940864;28;89800;-32
2023/03/14 03:13:08;;;;;;;8.55;3.65;;;9.70;99.90;;;;;;4941679;28;89183;-32
2023/03/14 03:15:33;;;;;;;4.55;2.90;;;9.70;99.90;;;;;;4940491;28;89912;-31
2023/03/14 03:17:59;;;;;;;4.82;2.78;;;9.80;99.90;;;;;;4940767;28;89902;-31
2023/03/14 03:20:25;;;;;;;7.95;3.25;;;9.70;99.90;;;;;;4940204;28;90414;-31
2023/03/14 03:22:50;;;;;;;3.50;3.20;;;9.60;99.90;;;;;;4940874;28;88921;-29
2023/03/14 03:25:16;;;;;;;8.30;3.60;;;9.60;99.90;;;;;;4940831;28;89720;-31
2023/03/14 03:27:42;;;;;;;9.93;3.45;;;9.50;99.90;;;;;;4940718;28;89630;-30
2023/03/14 03:30:09;;;;;;;6.03;2.83;;;9.50;99.90;;;;;;4941710;28;88575;-31
2023/03/14 03:32:35;;;;;;;7.93;4.00;;;9.50;99.90;;;;;;4939889;28;89048;-32
2023/03/14 03:35:02;;;;;;;16.27;3.65;;;9.40;99.90;;;;;;4940403;28;90430;-33
2023/03/14 03:37:30;;;;;;;8.30;4.50;;;9.40;99.90;;;;;;4941135;28;89688;-31
2023/03/14 03:39:56;;;;;;;7.57;3.63;;;9.40;99.90;;;;;;4941199;28;89904;-28
2023/03/14 03:42:21;;;;;;;7.25;4.25;;;9.40;99.90;;;;;;4939909;28;89225;-32
2023/03/14 03:44:48;;;;;;;14.25;3.78;;;9.40;99.90;;;;;;4939948;28;90265;-31
2023/03/14 03:47:13;;;;;;;4.38;3.90;;;9.30;99.90;;;;;;4940686;28;89175;-30
2023/03/14 03:49:39;;;;;;;7.47;3.45;;;9.30;99.90;;;;;;4939436;28;89156;-33
2023/03/14 03:52:05;;;;;;;6.68;4.07;;;9.30;99.90;;;;;;4941405;28;90054;-30
2023/03/14 03:54:30;;;;;;;10.35;4.75;;;9.40;99.90;;;;;;4940102;28;90591;-29
2023/03/14 03:56:56;;;;;;;5.60;4.20;;;9.30;99.90;;;;;;4940076;28;89834;-30
2023/03/14 03:59:22;;;;;;;8.43;3.83;;;9.40;99.90;;;;;;4939882;28;89518;-30
2023/03/14 04:01:47;;;;;;;6.97;3.42;;;9.30;99.90;;;;;;4940454;28;87718;-32
2023/03/14 04:04:13;;;;;;;12.05;3.95;;;9.30;99.90;;;;;;4940451;28;89937;-32
2023/03/14 04:06:41;;;;;;;6.55;4.47;;;9.30;99.90;;;;;;4939736;28;90594;-34
2023/03/14 04:09:07;;;;;;;4.80;3.13;;;9.30;99.90;;;;;;4938515;28;90462;-32
2023/03/14 04:11:33;;;;;;;6.95;3.60;;;9.20;99.90;;;;;;4940204;28;88628;-31
2023/03/14 04:13:59;;;;;;;13.40;4.45;;;9.20;99.90;;;;;;4940063;28;89944;-31
2023/03/14 04:16:26;;;;;;;6.68;4.22;;;9.20;99.90;;;;;;4940819;28;89534;-30
2023/03/14 04:18:52;;;;;;;7.57;4.45;;;9.20;99.90;;;;;;4938747;28;89582;-30
2023/03/14 04:21:18;;;;;;;9.63;4.05;;;9.10;99.90;;;;;;4940134;28;89984;-33
2023/03/14 04:23:44;;;;;;;16.95;4.13;;;9.10;99.90;;;;;;4939316;28;90107;-32
2023/03/14 04:26:10;;;;;;;7.03;3.75;;;9.10;99.90;;;;;;4939627;28;90159;-32
2023/03/14 04:28:36;;;;;;;9.45;3.65;;;9.10;99.90;;;;;;4939726;28;88420;-31
2023/03/14 04:31:13;;;;;;;14.18;4.00;;;9.20;99.90;;;;;;4939357;28;89781;-29
2023/03/14 04:33:39;;;;;;;12.93;4.03;;;9.10;99.90;;;;;;4939492;28;90834;-35
2023/03/14 04:36:06;;;;;;;6.63;2.63;;;9.10;99.90;;;;;;4939366;28;90099;-31
2023/03/14 04:38:32;;;;;;;6.43;4.57;;;9.10;99.90;;;;;;4940075;28;89571;-31
2023/03/14 04:40:59;;;;;;;9.65;4.30;;;9.20;99.90;;;;;;4939917;28;89342;-31
2023/03/14 04:43:25;;;;;;;8.07;3.67;;;9.10;99.90;;;;;;4921682;28;90224;-30
2023/03/14 04:45:54;;;;;;;7.88;4.07;;;9.10;99.90;;;;;;4939254;28;89703;-27
2023/03/14 04:48:20;;;;;;;5.07;3.72;;;9.10;99.90;;;;;;4940516;28;89353;-29
2023/03/14 04:50:47;;;;;;;5.70;3.80;;;9.10;99.90;;;;;;4938868;28;89414;-30
2023/03/14 04:53:13;;;;;;;11.70;3.88;;;9.00;99.90;;;;;;4939985;28;89707;-30
2023/03/14 04:55:39;;;;;;;11.80;4.13;;;9.00;99.90;;;;;;4938945;28;91173;-31
2023/03/14 04:58:04;;;;;;;7.78;4.18;;;9.00;99.90;;;;;;4939161;28;90502;-33
2023/03/14 05:00:30;;;;;;;5.60;4.53;;;9.00;99.90;;;;;;4939758;28;89262;-28
2023/03/14 05:02:56;;;;;;;8.55;4.25;;;9.00;99.90;;;;;;4939307;28;90006;-32
2023/03/14 05:05:22;;;;;;;10.10;4.15;;;9.00;99.90;;;;;;4939978;28;90000;-31
2023/03/14 05:07:48;;;;;;;6.78;5.15;;;9.00;99.90;;;;;;4939079;28;90086;-29
2023/03/14 05:10:14;;;;;;;6.07;4.40;;;9.00;99.90;;;;;;4939563;28;89577;-32
2023/03/14 05:12:39;;;;;;;7.70;3.53;;;9.00;99.90;;;;;;4939219;28;90392;-34
2023/03/14 05:15:05;;;;;;;8.57;5.22;;;9.00;99.90;;;;;;4939027;28;90462;-31
2023/03/14 05:17:33;;;;;;;14.40;5.30;;;9.00;99.90;;;;;;4939944;28;89336;-32
2023/03/14 05:19:58;;;;;;;8.18;4.75;;;9.00;99.90;;;;;;4939205;28;89931;-28
2023/03/14 05:22:24;;;;;;;5.55;3.67;;;8.90;99.90;;;;;;4939032;28;90100;-29
2023/03/14 05:24:50;;;;;;;8.27;3.92;;;8.90;99.90;;;;;;4938830;28;89803;-29
2023/03/14 05:27:15;;;;;;;5.28;4.35;;;8.90;99.90;;;;;;4939362;28;89722;-31
2023/03/14 05:29:41;;;;;;;20.23;4.85;;;8.90;99.90;;;;;;4939478;28;88766;-32
2023/03/14 05:32:06;;;;;;;8.13;4.82;;;8.90;99.90;;;;;;4938959;28;89958;-30
2023/03/14 05:34:32;;;;;;;8.68;4.15;;;8.90;99.90;;;;;;4938881;28;89308;-33
2023/03/14 05:36:58;;;;;;;6.50;4.43;;;9.00;99.90;;;;;;4939542;28;89716;-29
2023/03/14 05:39:23;;;;;;;8.50;3.90;;;8.90;99.90;;;;;;4939250;28;89578;-32
2023/03/14 05:41:50;;;;;;;20.48;5.63;;;8.90;99.90;;;;;;4939201;28;90034;-31
2023/03/14 05:44:16;;;;;;;6.68;3.13;;;9.00;99.90;;;;;;4938571;28;90424;-30
2023/03/14 05:46:41;;;;;;;9.35;4.47;;;9.00;99.90;;;;;;4938135;28;90416;-31
2023/03/14 05:49:07;;;;;;;7.82;4.22;;;9.00;99.90;;;;;;4939261;28;90360;-29
2023/03/14 05:51:32;;;;;;;14.05;4.00;;;9.00;99.90;;;;;;4938774;28;90532;-29
2023/03/14 05:53:58;;;;;;;6.18;3.80;;;9.00;99.90;;;;;;4938643;28;89674;-29
2023/03/14 05:56:23;;;;;;;7.95;4.03;;;9.00;99.90;;;;;;4942347;28;88364;-29
2023/03/14 05:58:49;;;;;;;12.75;5.88;;;9.00;99.90;;;;;;4942600;28;90397;-31
2023/03/14 06:01:15;;;;;;;10.07;4.28;;;9.00;99.90;;;;;;4942156;28;90111;-29
2023/03/14 06:03:40;;;;;;;4.93;3.97;;;8.90;99.90;;;;;;4941644;28;89645;-28
2023/03/14 06:06:06;;;;;;;9.07;3.95;;;8.90;99.90;;;;;;4942452;28;89619;-31
2023/03/14 06:08:32;;;;;;;10.15;3.63;;;8.90;99.90;;;;;;4941454;28;89773;-29
2023/03/14 06:10:58;;;;;;;7.03;4.55;;;8.90;99.90;;;;;;4941614;28;90672;-29
2023/03/14 06:13:23;;;;;;;5.25;2.92;;;8.90;99.90;;;;;;4941692;28;89837;-32
2023/03/14 06:15:49;;;;;;;15.63;4.93;;;8.90;99.90;;;;;;4941592;28;89593;-32
2023/03/14 06:18:15;;;;;;;4.97;3.50;;;8.90;99.90;;;;;;4942157;28;89498;-33
2023/03/14 06:20:40;;;;;;;9.40;4.10;;;8.90;99.90;;;;;;4923278;28;90028;-33
2023/03/14 06:23:07;;;;;;;5.95;4.13;;;8.90;99.90;;;;;;4942241;28;90362;-27
2023/03/14 06:25:34;;;;;;;6.90;3.83;;;8.90;99.90;;;;;;4941725;28;89965;-31
2023/03/14 06:27:59;;;;;;;16.88;4.97;;;8.90;99.90;;;;;;4941684;28;89510;-33
2023/03/14 06:30:25;;;;;;;10.73;4.40;;;8.90;99.90;;;;;;4942170;28;90291;-30
2023/03/14 06:32:51;;;;;;;9.48;4.18;;;8.80;99.90;;;;;;4940168;28;90878;-30
2023/03/14 06:35:17;;;;;;;7.03;3.72;;;8.90;99.90;;;;;;4942000;28;90672;-32
2023/03/14 06:37:42;;;;;;;4.70;3.72;;;8.90;99.90;;;;;;4941736;28;88544;-30
2023/03/14 06:40:10;;;;;;;5.18;3.67;;;8.90;99.90;;;;;;4941829;28;91667;-30
2023/03/14 06:42:35;;;;;;;4.32;3.42;;;8.90;99.90;;;;;;4941582;28;90668;-30
2023/03/14 06:45:02;;;;;;;9.10;4.18;;;8.90;99.90;;;;;;4940635;28;89541;-30
2023/03/14 06:47:28;;;;;;;11.05;4.40;;;8.90;99.90;;;;;;4941825;28;87753;-29
2023/03/14 06:49:54;;;;;;;6.65;3.65;;;8.90;99.90;;;;;;4941130;28;89965;-30
2023/03/14 06:52:19;;;;;;;12.90;4.13;;;8.90;99.90;;;;;;4941408;28;88575;-31
2023/03/14 06:54:45;;;;;;;7.07;4.20;;;8.90;99.90;;;;;;4940779;28;89866;-31
2023/03/14 06:57:11;;;;;;;5.82;3.30;;;8.90;99.90;;;;;;4940645;28;90596;-29
2023/03/14 06:59:36;;;;;;;7.88;4.18;;;9.00;99.90;;;;;;4941605;28;90435;-32
2023/03/14 07:02:02;;;;;;;7.18;3.88;;;9.00;99.90;;;;;;4941103;28;89734;-32
2023/03/14 07:04:27;;;;;;;11.95;5.10;;;9.00;99.90;;;;;;4940358;28;89898;-33
2023/03/14 07:06:53;;;;;;;6.90;3.92;;;9.00;99.90;;;;;;4940704;28;88734;-28
2023/03/14 07:09:19;;;;;;;8.27;3.83;;;9.00;99.90;;;;;;4940739;28;90593;-30
2023/03/14 07:11:45;;;;;;;4.65;3.78;;;9.00;99.90;;;;;;4940731;28;89210;-31
2023/03/14 07:14:11;;;;;;;20.08;4.10;;;9.00;99.90;;;;;;4940898;28;90686;-30
2023/03/14 07:16:36;;;;;;;7.55;3.70;;;9.00;99.90;;;;;;4941319;28;89873;-28
2023/03/14 07:19:02;;;;;;;5.93;2.92;;;9.00;99.90;;;;;;4940880;28;90922;-29
2023/03/14 07:21:28;;;;;;;8.32;3.83;;;9.00;99.90;;;;;;4939790;28;90605;-30
2023/03/14 07:23:54;;;;;;;4.88;3.63;;;9.00;99.90;;;;;;4941179;28;90045;-31
2023/03/14 07:26:20;;;;;;;10.77;5.00;;;9.00;99.90;;;;;;4940044;28;89626;-30
2023/03/14 07:28:46;;;;;;;6.88;3.13;;;9.00;99.90;;;;;;4940302;28;90225;-30
2023/03/14 07:31:11;;;;;;;10.13;5.32;;;9.00;99.90;;;;;;4940525;28;89653;-28
2023/03/14 07:33:37;;;;;;;6.22;4.28;;;9.00;99.90;;;;;;4940404;28;89718;-32
2023/03/14 07:36:03;;;;;;;6.40;3.50;;;9.00;99.90;;;;;;4940336;28;89040;-31
2023/03/14 07:38:29;;;;;;;4.78;3.13;;;8.90;99.90;;;;;;4940652;28;90187;-33
2023/03/14 07:41:00;;;;;;;8.75;3.80;;;9.00;99.90;;;;;;4939808;28;89766;-33
2023/03/14 07:43:25;;;;;;;1.55;1.13;;;8.90;99.90;;;;;;4940390;28;89914;-32
2023/03/14 07:45:51;;;;;;;2.78;1.48;;;8.70;99.90;;;;;;4940146;28;90358;-30
2023/03/14 07:48:17;;;;;;;0.70;0.70;;;8.40;99.90;;;;;;4940273;28;89334;-30
2023/03/14 07:50:42;;;;;;;1.98;1.02;;;8.00;99.90;;;;;;4939867;28;89266;-31
2023/03/14 07:53:08;;;;;;;1.50;0.60;;;7.90;99.90;;;;;;4939961;28;91477;-30
2023/03/14 07:55:33;;;;;;;1.27;1.00;;;7.50;99.90;;;;;;4940505;28;88957;-31
2023/03/14 07:57:59;;;;;;;6.18;1.45;;;7.40;99.90;;;;;;4940949;28;92336;-30
2023/03/14 08:00:25;;;;;;;3.78;1.60;;;7.40;99.90;;;;;;4939980;28;89631;-30
2023/03/14 08:02:50;;;;;;;5.95;1.58;;;7.20;99.90;;;;;;4941327;28;89691;-30
2023/03/14 08:05:16;;;;;;;1.27;1.05;;;7.10;99.90;;;;;;4940104;28;88684;-32
2023/03/14 08:07:42;;;;;;;3.35;1.27;;;6.80;99.90;;;;;;4940219;28;89841;-30
2023/03/14 08:10:08;;;;;;;2.17;1.10;;;6.60;99.90;;;;;;4939379;28;90554;-30
2023/03/14 08:12:34;;;;;;;1.40;1.30;;;6.60;99.90;;;;;;4939742;28;91814;-31
2023/03/14 08:15:00;;;;;;;4.03;1.33;;;6.30;99.90;;;;;;4940105;28;88087;-31
2023/03/14 08:17:26;;;;;;;8.02;1.88;;;6.20;99.90;;;;;;4927025;28;90128;-31
2023/03/14 08:19:52;;;;;;;1.27;1.10;;;6.00;99.90;;;;;;4937929;28;89116;-33
2023/03/14 08:22:17;;;;;;;4.70;1.08;;;6.10;99.90;;;;;;4939526;28;89660;-30
2023/03/14 08:24:43;;;;;;;2.67;0.70;;;5.90;99.90;;;;;;4939020;28;89132;-33
2023/03/14 08:27:08;;;;;;;6.57;1.15;;;5.70;99.90;;;;;;4939346;28;90391;-31
2023/03/14 08:29:34;;;;;;;1.27;1.02;;;5.70;99.90;;;;;;4939383;28;89538;-28
2023/03/14 08:31:59;;;;;;;1.27;1.17;;;5.60;99.90;;;;;;4938474;28;90198;-30
2023/03/14 08:34:25;;;;;;;2.92;1.65;;;5.60;99.90;;;;;;4938747;28;90243;-31
2023/03/14 08:36:51;;;;;;;0.73;0.68;;;5.40;99.90;;;;;;4938879;28;89183;-32
2023/03/14 08:39:16;;;;;;;0.50;0.50;;;5.30;99.90;;;;;;4938816;28;88433;-32
2023/03/14 08:41:44;;;;;;;0.70;0.57;;;5.30;99.90;;;;;;4938682;28;89438;-32
2023/03/14 08:44:13;;;;;;;0.73;0.50;;;5.30;99.90;;;;;;4938696;28;89026;-31
2023/03/14 08:46:39;;;;;;;1.55;1.13;;;5.30;99.90;;;;;;4938251;28;90254;-31
2023/03/14 08:49:04;;;;;;;0.50;0.50;;;5.20;99.90;;;;;;4938087;28;90726;-32
2023/03/14 08:51:30;;;;;;;0.60;0.60;;;5.20;99.90;;;;;;4939268;28;89803;-31
2023/03/14 08:53:55;;;;;;;0.90;0.70;;;5.20;99.90;;;;;;4939132;28;88546;-31
2023/03/14 08:56:21;;;;;;;1.85;0.50;;;5.10;99.90;;;;;;4938505;28;90824;-32
2023/03/14 08:58:47;;;;;;;0.85;0.85;;;5.20;99.90;;;;;;4938907;28;91175;-29
2023/03/14 09:01:12;;;;;;;1.27;1.17;;;5.20;99.90;;;;;;4939269;28;90146;-32
2023/03/14 09:03:38;;;;;;;0.88;0.88;;;5.20;99.90;;;;;;4939593;28;89290;-32
2023/03/14 09:06:09;;;;;;;0.70;0.63;;;5.30;99.90;;;;;;4939549;28;89777;-31
2023/03/14 09:08:35;;;;;;;2.20;0.95;;;5.30;99.90;;;;;;4938543;28;89514;-33
2023/03/14 09:11:01;;;;;;;2.08;0.90;;;5.40;99.90;;;;;;4938480;28;89267;-30
2023/03/14 09:13:27;;;;;;;0.40;0.40;;;5.40;99.90;;;;;;4939398;28;90260;-29
2023/03/14 09:15:57;;;;;;;2.72;1.25;;;5.30;99.90;;;;;;4938686;28;89764;-31
2023/03/14 09:18:23;;;;;;;3.38;1.48;;;5.20;99.90;;;;;;4938584;28;90813;-32
2023/03/14 09:20:49;;;;;;;3.20;1.58;;;5.40;99.90;;;;;;4938120;28;90173;-32
2023/03/14 09:23:15;;;;;;;4.22;1.33;;;5.30;99.90;;;;;;4939105;28;90565;-29
2023/03/14 09:25:41;;;;;;;1.42;0.93;;;5.50;99.90;;;;;;4938104;28;90250;-33
2023/03/14 09:28:07;;;;;;;9.85;1.10;;;5.50;99.90;;;;;;4939444;28;89566;-30
2023/03/14 09:30:32;;;;;;;4.60;0.95;;;5.60;99.90;;;;;;4941245;28;90780;-31
2023/03/14 09:32:58;;;;;;;4.90;1.60;;;5.60;99.90;;;;;;4941504;28;89940;-32
2023/03/14 09:35:24;;;;;;;4.90;1.83;;;5.60;99.90;;;;;;4942400;28;89162;-29
2023/03/14 09:37:50;;;;;;;1.60;1.13;;;5.60;99.90;;;;;;4941346;28;89991;-29
2023/03/14 09:40:18;;;;;;;6.53;3.45;;;5.80;99.90;;;;;;4942515;28;90190;-30
2023/03/14 09:42:43;;;;;;;4.35;1.30;;;5.90;99.90;;;;;;4942077;28;89896;-28
2023/03/14 09:45:23;;;;;;;7.00;0.93;;;6.00;99.90;;;;;;4941404;28;89710;-29
2023/03/14 09:47:48;;;;;;;4.45;1.98;;;6.10;99.90;;;;;;4940873;28;90037;-31
2023/03/14 09:50:15;;;;;;;5.72;3.03;;;6.20;99.90;;;;;;4941850;28;89877;-29
2023/03/14 09:52:46;;;;;;;6.45;2.08;;;6.40;99.90;;;;;;4942098;28;89017;-29
2023/03/14 09:55:15;;;;;;;8.23;2.50;;;6.60;99.90;;;;;;4941684;28;89868;-28
2023/03/14 09:57:43;;;;;;;6.55;1.83;;;6.60;99.90;;;;;;4941607;28;89760;-30
2023/03/14 10:00:25;;;;;;;6.83;2.03;;;6.70;99.90;;;;;;4948680;28;90629;-29
2023/03/14 10:02:56;;;;;;;5.57;2.03;;;6.70;99.90;;;;;;4944199;28;89490;-28
2023/03/14 10:05:24;;;;;;;4.75;2.22;;;6.80;99.90;;;;;;4936160;28;89150;-32
2023/03/14 10:07:50;;;;;;;5.18;3.40;;;7.00;99.90;;;;;;4941643;28;89877;-29
2023/03/14 10:10:22;;;;;;;10.85;3.55;;;7.00;99.90;;;;;;4941055;28;89015;-32
2023/03/14 10:12:59;;;;;;;8.55;3.45;;;6.90;99.90;;;;;;4941299;28;88564;-29
2023/03/14 10:15:29;;;;;;;7.80;3.17;;;6.80;99.90;;;;;;4941551;28;89704;-31
2023/03/14 10:17:55;;;;;;;5.60;2.63;;;6.80;99.90;;;;;;4941528;28;89623;-31
2023/03/14 10:20:42;;;;;;;8.70;3.53;;;6.80;99.90;;;;;;4940551;28;88078;-33
2023/03/14 10:23:13;;;;;;;10.07;2.70;;;6.60;99.90;;;;;;4941275;28;89468;-30
2023/03/14 10:26:00;;;;;;;12.90;2.92;;;6.60;99.90;;;;;;4940501;28;90364;-32
2023/03/14 10:28:28;;;;;;;5.97;2.75;;;6.50;99.90;;;;;;4941617;28;89094;-32
2023/03/14 10:30:55;;;;;;;10.93;3.72;;;6.50;99.90;;;;;;4941505;28;89971;-30
2023/03/14 10:33:26;;;;;;;20.42;4.05;;;6.60;99.90;;;;;;4939500;28;89922;-31
2023/03/14 10:36:14;;;;;;;9.98;3.63;;;6.70;99.90;;;;;;4941019;28;89687;-31
2023/03/14 10:38:40;;;;;;;10.70;2.63;;;6.80;99.90;;;;;;4931950;28;90940;-32
2023/03/14 10:41:26;;;;;;;6.55;2.90;;;6.80;99.90;;;;;;4940194;28;90394;-31
2023/03/14 10:43:58;;;;;;;13.40;3.60;;;6.90;99.90;;;;;;4940175;28;88975;-32
2023/03/14 10:46:26;;;;;;;18.33;3.47;;;6.90;99.90;;;;;;4940753;28;90017;-31
2023/03/14 10:48:53;;;;;;;12.80;3.85;;;7.00;99.90;;;;;;4939968;28;89989;-32
2023/03/14 10:51:24;;;;;;;11.35;2.60;;;7.10;99.90;;;;;;4940871;28;88194;-29
2023/03/14 10:53:57;;;;;;;18.08;3.90;;;7.10;99.90;;;;;;4940482;28;88641;-29
2023/03/14 10:56:24;;;;;;;9.85;3.95;;;7.00;99.90;;;;;;4940742;28;89238;-30
2023/03/14 10:58:55;;;;;;;9.33;3.87;;;6.90;99.90;;;;;;4940516;28;89684;-29
2023/03/14 11:01:41;;;;;;;13.25;4.80;;;6.80;99.90;;;;;;4940876;28;89484;-29
2023/03/14 11:04:31;;;;;;;8.30;4.28;;;6.90;99.90;;;;;;4940069;28;88091;-29
2023/03/14 11:07:00;;;;;;;7.97;3.25;;;6.90;99.90;;;;;;4939328;28;89768;-29
2023/03/14 11:09:50;;;;;;;9.63;3.35;;;6.90;99.90;;;;;;4940499;28;89685;-31
2023/03/14 11:12:22;;;;;;;12.68;3.13;;;7.10;99.90;;;;;;4939409;28;89678;-28
2023/03/14 11:14:55;;;;;;;11.68;4.00;;;7.20;99.90;;;;;;4940778;28;87839;-31
2023/03/14 11:17:41;;;;;;;8.07;3.60;;;7.20;99.90;;;;;;4941074;28;90040;-32
2023/03/14 11:20:31;;;;;;;13.98;4.10;;;7.30;99.90;;;;;;4939914;28;90192;-33
2023/03/14 11:23:16;;;;;;;7.40;3.08;;;7.30;99.90;;;;;;4941019;28;89417;-30
2023/03/14 11:25:44;;;;;;;7.88;3.08;;;7.30;99.90;;;;;;4928219;28;90289;-32
2023/03/14 11:28:23;;;;;;;5.10;2.97;;;7.30;99.90;;;;;;4940171;28;89841;-31
2023/03/14 11:30:54;;;;;;;10.35;3.55;;;7.20;99.90;;;;;;4939092;28;90723;-30
2023/03/14 11:33:29;;;;;;;9.15;3.40;;;7.30;99.90;;;;;;4940105;28;90440;-31
2023/03/14 11:36:09;;;;;;;9.57;4.80;;;7.60;99.90;;;;;;4940395;28;88728;-31
2023/03/14 11:38:47;;;;;;;7.40;2.45;;;7.70;99.90;;;;;;4928187;28;90038;-30
2023/03/14 11:41:33;;;;;;;;;;;7.70;99.90;;;;;;4922565;28;89318;-32
2023/03/14 11:44:04;;;;;;;5.28;1.63;;;7.60;99.90;;;;;;4940869;28;88676;-31
2023/03/14 11:46:38;;;;;;;14.07;3.10;;;7.60;99.90;;;;;;4940803;28;88095;-30
2023/03/14 11:49:38;;;;;;;6.43;3.63;;;7.60;99.90;;;;;;4979545;22;89339;-32
2023/03/14 11:52:13;;;;;;;5.90;2.50;;;7.50;99.90;;;;;;4958831;28;89867;-29
2023/03/14 11:54:49;;;;;;;7.25;2.25;;;7.60;99.90;;;;;;4958978;28;89923;-29
2023/03/14 11:57:20;;;;;;;7.72;2.50;;;7.70;99.90;;;;;;4961747;28;88299;-28
2023/03/14 11:59:57;;;;;;;7.32;1.85;;;7.80;99.90;;;;;;4948893;28;89688;-32
2023/03/14 12:02:32;;;;;;;10.77;2.40;;;7.90;99.90;;;;;;4960013;28;89470;-29
2023/03/14 12:05:21;;;;;;;5.30;1.55;;;8.10;99.90;;;;;;4958977;28;89006;-30
2023/03/14 12:08:09;;;;;;;7.93;2.42;;;8.20;99.90;;;;;;4970096;28;89604;-30
2023/03/14 12:10:49;;;;;;;7.03;3.00;;;8.10;99.90;;;;;;4960040;28;90867;-29
2023/03/14 12:13:16;;;;;;;8.82;2.25;;;8.10;99.90;;;;;;4976368;28;89514;-30
2023/03/14 12:16:13;;;;;;;5.32;1.98;;;8.10;99.90;;;;;;4968616;28;89756;-32
2023/03/14 12:18:41;;;;;;;6.63;2.23;;;8.00;96.20;;;;;;4967703;28;89398;-29
2023/03/14 12:21:10;;;;;;;6.68;2.40;;;8.00;99.90;;;;;;4971919;28;90382;-30
2023/03/14 12:23:56;;;;;;;4.38;1.35;;;7.90;93.80;;;;;;4959366;28;89378;-33
2023/03/14 12:26:24;;;;;;;4.40;2.25;;;7.90;99.90;;;;;;4961924;28;90786;-31
2023/03/14 12:29:15;;;;;;;5.28;1.90;;;8.00;99.90;;;;;;4967592;28;89264;-31
2023/03/14 12:32:00;;;;;;;5.30;2.90;;;7.90;94.00;;;;;;4961213;28;91347;-29
2023/03/14 12:34:33;;;;;;;5.00;1.40;;;7.90;99.90;;;;;;4957517;28;89743;-31
2023/03/14 12:37:06;;;;;;;2.50;1.63;;;8.10;99.40;;;;;;4959201;28;89714;-29
2023/03/14 12:39:43;;;;;;;5.63;1.60;;;8.00;90.20;;;;;;4959324;28;89487;-30
2023/03/14 12:42:28;;;;;;;3.67;2.10;;;7.90;81.50;;;;;;4959117;28;90726;-30
2023/03/14 12:45:25;;;;;;;4.18;1.70;;;8.20;91.70;;;;;;4958765;28;89754;-32
2023/03/14 12:47:52;;;;;;;4.27;1.47;;;8.50;90.60;;;;;;4958356;28;89749;-30
2023/03/14 12:50:23;;;;;;;6.63;1.30;;;8.60;92.00;;;;;;4957984;28;89337;-32
2023/03/14 12:53:04;;;;;;;3.30;2.17;;;8.50;91.90;;;;;;4959408;28;90290;-29
2023/03/14 12:55:48;;;;;;;3.90;2.17;;;8.30;85.60;;;;;;4959111;28;90769;-32
2023/03/14 12:58:24;;;;;;;13.32;1.92;;;8.30;96.50;;;;;;4958866;28;90075;-31
2023/03/14 13:01:00;;;;;;;3.28;1.67;;;8.20;86.00;;;;;;4959086;28;88102;-30
2023/03/14 13:03:43;;;;;;;5.32;1.30;;;8.40;99.90;;;;;;4959866;28;89878;-29